Terminal Aerodrome Forecast
Issued by NWS

Home | Current Version | Previous Version | Text Only | Print | Product List | Glossary On
Versions: 1 2 3 4 5 6 7 8 9 10 11 12 13 14 15 16 17 18 19 20 21 22
000
FTUS41 KPBZ 291454 AAA
TAFDUJ
TAF AMD
KDUJ 291454Z 2915/3012 34005KT 3SM BR OVC003
     FM291700 09005KT 5SM BR OVC006
     FM292000 32005KT P6SM VCSH BKN010
     FM300400 34004KT 1 1/2SM BR OVC003=

USA.gov is the U.S. government's official web portal to all federal, state and local government web resources and services.